DIRECCIÓN GENERAL DE AERONÁUTICA CIVIL
DIRECCIÓN METEOROLÓGICA DE CHILE
INFORMACIÓN METAR Y TAF

FIR SANTIAGO

Estación: SCSE
METAR SCSE 120300Z 28002KT 9999 FEW025 17/14 Q1012=

TAF SCSE 112220Z 1200/1224 29008KT 9999 FEW020 BKN220 TX21/1218Z TN15 /1210Z TEMPO 1202/1206 VRB02KT BKN010 BECMG 1206/1208 VRB02KT BKN020 BECMG 1214/1216 29008KT CAVOK TEMPO 1218/1222 VRB02KT=

Estación: SCER
METAR SCER NIL=

TAF SCER NIL=

Estación: SCRD
METAR SCRD 120000Z 15006KT CAVOK 16/13 Q1013=

TAF SCRD 111030Z 1112/1124 30005KT 9999 OVC012 TX21/1119Z TN15/1112Z BECMG 1116/1118 33005KT SCT015 BECMG 1118/1120 CAVOK=

Estación: SCVM
METAR SCVM 120300Z 21002KT CAVOK 16/13 Q1014=

TAF SCVM 112221Z 1200/1224 00000KT CAVOK TX20/1219Z TN15/1210Z TEMPO 1204/1208 14005KT SCT010 BECMG 1209/1211 BKN020 BECMG 1215/1217 22012KT SCT015 BECMG 1219/1221 30010KT CAVOK=

Estación: SCTB
METAR SCTB 120000Z 23003KT CAVOK 25/10 Q1013=

TAF SCTB 111030Z 1112/1124 22003KT CAVOK TX31/1119Z TN16/1112Z BECMG 1116/1118 23008KT=

Estación: SCEL
METAR SCEL 120300Z 17011KT 9999 FEW160 18/11 Q1013 NOSIG=

TAF SCEL 112221Z 1200/1224 19012KT CAVOK TX29/1218Z TN14/1210Z BECMG 1202/1204 16005KT TEMPO 1208/1212 VRB02KT 7000 NSC BECMG 1216/1218 19012KT=

Estación: SCSN
METAR SCSN 120300Z AUTO VRB01KT CAVOK 15/12 Q1014=

TAF SCSN 111030Z 1112/1124 22004KT 9999 OVC015 TX21/1119Z TN16/1112Z BECMG 1116/1118 29010KT SCT020 BECMG 1118/1120 CAVOK=

Estación: SCRG
METAR SCRG 112000Z 19013KT CAVOK 29/14 Q1012=

TAF SCRG 111030Z 1112/1124 VRB02KT CAVOK TX30/1119Z TN16/1112Z BECMG 1115/1117 19012KT=

Estación: SCIC
METAR SCIC 120300Z AUTO 27007KT CAVOK 18/12 Q1011=

TAF SCIC 111549Z 1118/1206 27010KT CAVOK TX30/1119Z TN13/1206Z BECMG 1204/1206 03005KT SCT010=

Estación: SCCH
METAR SCCH 120200Z AUTO 23005KT CAVOK 15/12 Q1013=

TAF AMD SCCH 111908Z 1120/1206 30010KT CAVOK TX27/1119Z TN12/1206Z BECMG 1204/1206 VRB02KT 4000 BR BKN008=

Estación: SCIE
METAR SCIE 120300Z 24005KT 160V300 9999 OVC023 17/14 Q1014=

TAF SCIE 112221Z 1200/1224 21005KT 9999 BKN010 TX19/1219Z TN14/1210Z TEMPO 1206/1210 14005KT 2000 DZ OVC008 BECMG 1214/1216 22013KT 5000 BKN020 BECMG 1220/1222 21005KT 9999 SCT030=

Estación: SCGE
METAR SCGE 112100Z 27010KT CAVOK 29/11 Q1012=

TAF AMD SCGE 111908Z 1120/1206 30008KT CAVOK TX27/1119Z TN14/1206Z BECMG 1204/1206 3000 BR BKN008=


Volver